sensor_id;sensor_type;location;lat;lon;timestamp;P1;durP1;ratioP1;P2;durP2;ratioP2
46116;SDS011;32591;48.102;11.772;2023-04-03T00:00:38;9.15;;;5.55;;
46116;SDS011;32591;48.102;11.772;2023-04-03T00:03:05;7.95;;;5.38;;
46116;SDS011;32591;48.102;11.772;2023-04-03T00:05:32;11.07;;;5.68;;
46116;SDS011;32591;48.102;11.772;2023-04-03T00:07:59;8.40;;;5.80;;
46116;SDS011;32591;48.102;11.772;2023-04-03T00:10:27;9.35;;;5.97;;
46116;SDS011;32591;48.102;11.772;2023-04-03T00:12:54;8.63;;;5.30;;
46116;SDS011;32591;48.102;11.772;2023-04-03T00:15:21;7.88;;;5.35;;
46116;SDS011;32591;48.102;11.772;2023-04-03T00:25:11;9.15;;;5.60;;
46116;SDS011;32591;48.102;11.772;2023-04-03T00:27:39;9.18;;;6.10;;
46116;SDS011;32591;48.102;11.772;2023-04-03T00:30:07;11.23;;;6.75;;
46116;SDS011;32591;48.102;11.772;2023-04-03T00:32:37;8.85;;;5.97;;
46116;SDS011;32591;48.102;11.772;2023-04-03T00:35:06;9.02;;;6.53;;
46116;SDS011;32591;48.102;11.772;2023-04-03T00:37:34;7.55;;;5.40;;
46116;SDS011;32591;48.102;11.772;2023-04-03T00:40:02;10.40;;;5.93;;
46116;SDS011;32591;48.102;11.772;2023-04-03T00:42:30;9.10;;;5.47;;
46116;SDS011;32591;48.102;11.772;2023-04-03T00:47:56;9.98;;;5.88;;
46116;SDS011;32591;48.102;11.772;2023-04-03T00:50:27;10.05;;;5.85;;
46116;SDS011;32591;48.102;11.772;2023-04-03T00:52:55;9.75;;;6.05;;
46116;SDS011;32591;48.102;11.772;2023-04-03T00:55:23;11.07;;;5.95;;
46116;SDS011;32591;48.102;11.772;2023-04-03T00:57:52;10.45;;;5.85;;
46116;SDS011;32591;48.102;11.772;2023-04-03T01:00:21;9.48;;;6.40;;
46116;SDS011;32591;48.102;11.772;2023-04-03T01:02:49;11.23;;;6.18;;
46116;SDS011;32591;48.102;11.772;2023-04-03T01:05:17;7.57;;;5.85;;
46116;SDS011;32591;48.102;11.772;2023-04-03T01:07:48;8.60;;;5.88;;
46116;SDS011;32591;48.102;11.772;2023-04-03T01:10:17;9.35;;;6.43;;
46116;SDS011;32591;48.102;11.772;2023-04-03T01:12:46;7.95;;;5.10;;
46116;SDS011;32591;48.102;11.772;2023-04-03T01:15:15;9.13;;;6.43;;
46116;SDS011;32591;48.102;11.772;2023-04-03T01:17:45;9.23;;;5.80;;
46116;SDS011;32591;48.102;11.772;2023-04-03T01:20:21;9.75;;;6.25;;
46116;SDS011;32591;48.102;11.772;2023-04-03T01:23:39;11.10;;;6.35;;
46116;SDS011;32591;48.102;11.772;2023-04-03T01:26:20;9.38;;;6.03;;
46116;SDS011;32591;48.102;11.772;2023-04-03T01:31:18;6.90;;;5.15;;
46116;SDS011;32591;48.102;11.772;2023-04-03T01:33:51;10.95;;;5.65;;
46116;SDS011;32591;48.102;11.772;2023-04-03T01:36:19;11.10;;;6.05;;
46116;SDS011;32591;48.102;11.772;2023-04-03T01:38:49;9.82;;;6.05;;
46116;SDS011;32591;48.102;11.772;2023-04-03T01:41:16;9.75;;;6.43;;
46116;SDS011;32591;48.102;11.772;2023-04-03T01:43:45;9.10;;;5.88;;
46116;SDS011;32591;48.102;11.772;2023-04-03T01:46:13;9.50;;;5.82;;
46116;SDS011;32591;48.102;11.772;2023-04-03T01:48:40;8.07;;;5.68;;
46116;SDS011;32591;48.102;11.772;2023-04-03T01:51:08;9.55;;;5.80;;
46116;SDS011;32591;48.102;11.772;2023-04-03T01:53:36;11.57;;;5.90;;
46116;SDS011;32591;48.102;11.772;2023-04-03T01:56:04;8.05;;;5.20;;
46116;SDS011;32591;48.102;11.772;2023-04-03T01:58:31;11.10;;;5.63;;
46116;SDS011;32591;48.102;11.772;2023-04-03T02:00:58;9.25;;;6.18;;
46116;SDS011;32591;48.102;11.772;2023-04-03T02:03:26;8.25;;;5.57;;
46116;SDS011;32591;48.102;11.772;2023-04-03T02:05:53;10.80;;;6.13;;
46116;SDS011;32591;48.102;11.772;2023-04-03T02:08:22;8.73;;;4.85;;
46116;SDS011;32591;48.102;11.772;2023-04-03T02:10:49;8.82;;;5.50;;
46116;SDS011;32591;48.102;11.772;2023-04-03T02:13:17;8.85;;;5.78;;
46116;SDS011;32591;48.102;11.772;2023-04-03T02:15:45;8.23;;;5.43;;
46116;SDS011;32591;48.102;11.772;2023-04-03T02:18:14;6.88;;;5.28;;
46116;SDS011;32591;48.102;11.772;2023-04-03T02:20:42;8.00;;;5.38;;
46116;SDS011;32591;48.102;11.772;2023-04-03T02:25:37;7.22;;;4.93;;
46116;SDS011;32591;48.102;11.772;2023-04-03T02:28:04;8.40;;;5.03;;
46116;SDS011;32591;48.102;11.772;2023-04-03T02:30:31;7.80;;;5.13;;
46116;SDS011;32591;48.102;11.772;2023-04-03T02:32:59;8.55;;;5.07;;
46116;SDS011;32591;48.102;11.772;2023-04-03T02:35:26;7.60;;;5.03;;
46116;SDS011;32591;48.102;11.772;2023-04-03T02:37:53;9.88;;;5.22;;
46116;SDS011;32591;48.102;11.772;2023-04-03T02:40:20;6.38;;;4.38;;
46116;SDS011;32591;48.102;11.772;2023-04-03T02:45:16;12.45;;;5.80;;
46116;SDS011;32591;48.102;11.772;2023-04-03T02:47:42;8.20;;;4.72;;
46116;SDS011;32591;48.102;11.772;2023-04-03T02:52:36;6.55;;;4.38;;
46116;SDS011;32591;48.102;11.772;2023-04-03T02:55:03;7.60;;;4.63;;
46116;SDS011;32591;48.102;11.772;2023-04-03T02:57:32;6.78;;;4.50;;
46116;SDS011;32591;48.102;11.772;2023-04-03T03:02:27;6.88;;;4.15;;
46116;SDS011;32591;48.102;11.772;2023-04-03T03:07:21;6.72;;;3.60;;
46116;SDS011;32591;48.102;11.772;2023-04-03T03:12:14;8.25;;;5.07;;
46116;SDS011;32591;48.102;11.772;2023-04-03T03:14:46;7.47;;;4.43;;
46116;SDS011;32591;48.102;11.772;2023-04-03T03:17:15;6.22;;;4.32;;
46116;SDS011;32591;48.102;11.772;2023-04-03T03:19:44;9.00;;;4.82;;
46116;SDS011;32591;48.102;11.772;2023-04-03T03:22:12;6.03;;;4.13;;
46116;SDS011;32591;48.102;11.772;2023-04-03T03:24:39;6.82;;;4.03;;
46116;SDS011;32591;48.102;11.772;2023-04-03T03:29:33;5.82;;;4.03;;
46116;SDS011;32591;48.102;11.772;2023-04-03T03:34:28;8.32;;;4.38;;
46116;SDS011;32591;48.102;11.772;2023-04-03T03:36:55;9.73;;;5.00;;
46116;SDS011;32591;48.102;11.772;2023-04-03T03:41:48;7.55;;;4.55;;
46116;SDS011;32591;48.102;11.772;2023-04-03T03:46:42;8.45;;;4.85;;
46116;SDS011;32591;48.102;11.772;2023-04-03T03:51:37;7.03;;;3.78;;
46116;SDS011;32591;48.102;11.772;2023-04-03T03:54:05;8.98;;;4.57;;
46116;SDS011;32591;48.102;11.772;2023-04-03T03:56:33;6.22;;;4.70;;
46116;SDS011;32591;48.102;11.772;2023-04-03T03:59:00;5.53;;;3.85;;
46116;SDS011;32591;48.102;11.772;2023-04-03T04:01:27;6.55;;;4.25;;
46116;SDS011;32591;48.102;11.772;2023-04-03T04:03:55;6.93;;;3.60;;
46116;SDS011;32591;48.102;11.772;2023-04-03T04:06:22;6.53;;;4.50;;
46116;SDS011;32591;48.102;11.772;2023-04-03T04:08:50;6.93;;;3.70;;
46116;SDS011;32591;48.102;11.772;2023-04-03T04:11:17;6.32;;;3.97;;
46116;SDS011;32591;48.102;11.772;2023-04-03T04:13:44;7.05;;;3.88;;
46116;SDS011;32591;48.102;11.772;2023-04-03T04:16:12;7.82;;;4.55;;
46116;SDS011;32591;48.102;11.772;2023-04-03T04:21:06;7.40;;;3.85;;
46116;SDS011;32591;48.102;11.772;2023-04-03T04:26:01;7.70;;;4.20;;
46116;SDS011;32591;48.102;11.772;2023-04-03T04:28:28;6.15;;;4.13;;
46116;SDS011;32591;48.102;11.772;2023-04-03T04:30:55;5.88;;;3.58;;
46116;SDS011;32591;48.102;11.772;2023-04-03T04:35:48;5.97;;;4.05;;
46116;SDS011;32591;48.102;11.772;2023-04-03T04:38:17;6.05;;;4.13;;
46116;SDS011;32591;48.102;11.772;2023-04-03T04:43:12;7.20;;;3.78;;
46116;SDS011;32591;48.102;11.772;2023-04-03T04:45:39;6.60;;;3.67;;
46116;SDS011;32591;48.102;11.772;2023-04-03T04:48:07;5.15;;;3.58;;
46116;SDS011;32591;48.102;11.772;2023-04-03T04:50:34;5.53;;;3.75;;
46116;SDS011;32591;48.102;11.772;2023-04-03T04:55:27;6.70;;;3.83;;
46116;SDS011;32591;48.102;11.772;2023-04-03T04:57:54;9.00;;;4.22;;
46116;SDS011;32591;48.102;11.772;2023-04-03T05:02:50;6.43;;;3.63;;
46116;SDS011;32591;48.102;11.772;2023-04-03T05:07:43;4.97;;;3.50;;
46116;SDS011;32591;48.102;11.772;2023-04-03T05:12:37;5.47;;;3.58;;
46116;SDS011;32591;48.102;11.772;2023-04-03T05:15:05;6.22;;;3.60;;
46116;SDS011;32591;48.102;11.772;2023-04-03T05:17:35;6.72;;;4.05;;
46116;SDS011;32591;48.102;11.772;2023-04-03T05:20:02;6.15;;;3.85;;
46116;SDS011;32591;48.102;11.772;2023-04-03T05:22:30;7.38;;;3.70;;
46116;SDS011;32591;48.102;11.772;2023-04-03T05:24:57;5.75;;;3.95;;
46116;SDS011;32591;48.102;11.772;2023-04-03T05:29:53;6.70;;;3.92;;
46116;SDS011;32591;48.102;11.772;2023-04-03T05:32:20;6.10;;;3.88;;
46116;SDS011;32591;48.102;11.772;2023-04-03T05:34:48;6.22;;;3.75;;
46116;SDS011;32591;48.102;11.772;2023-04-03T05:37:15;5.57;;;3.60;;
46116;SDS011;32591;48.102;11.772;2023-04-03T05:42:09;6.88;;;3.55;;
46116;SDS011;32591;48.102;11.772;2023-04-03T05:44:37;6.63;;;4.45;;
46116;SDS011;32591;48.102;11.772;2023-04-03T05:47:04;5.05;;;3.67;;
46116;SDS011;32591;48.102;11.772;2023-04-03T05:49:32;5.75;;;4.32;;
46116;SDS011;32591;48.102;11.772;2023-04-03T05:52:00;5.72;;;3.65;;
46116;SDS011;32591;48.102;11.772;2023-04-03T05:54:27;7.13;;;4.90;;
46116;SDS011;32591;48.102;11.772;2023-04-03T05:56:55;6.38;;;3.65;;
46116;SDS011;32591;48.102;11.772;2023-04-03T06:01:49;5.55;;;3.83;;
46116;SDS011;32591;48.102;11.772;2023-04-03T06:04:17;6.07;;;3.75;;
46116;SDS011;32591;48.102;11.772;2023-04-03T06:06:46;5.45;;;3.13;;
46116;SDS011;32591;48.102;11.772;2023-04-03T06:09:18;5.57;;;3.45;;
46116;SDS011;32591;48.102;11.772;2023-04-03T06:11:48;7.05;;;3.13;;
46116;SDS011;32591;48.102;11.772;2023-04-03T06:14:15;5.18;;;3.67;;
46116;SDS011;32591;48.102;11.772;2023-04-03T06:16:42;5.60;;;3.30;;
46116;SDS011;32591;48.102;11.772;2023-04-03T06:19:10;5.50;;;3.75;;
46116;SDS011;32591;48.102;11.772;2023-04-03T06:21:38;5.82;;;3.47;;
46116;SDS011;32591;48.102;11.772;2023-04-03T06:24:05;5.60;;;3.42;;
46116;SDS011;32591;48.102;11.772;2023-04-03T06:26:34;4.63;;;3.47;;
46116;SDS011;32591;48.102;11.772;2023-04-03T06:29:01;4.75;;;3.28;;
46116;SDS011;32591;48.102;11.772;2023-04-03T06:31:28;4.90;;;3.13;;
46116;SDS011;32591;48.102;11.772;2023-04-03T06:33:55;7.35;;;3.30;;
46116;SDS011;32591;48.102;11.772;2023-04-03T06:36:22;5.93;;;3.85;;
46116;SDS011;32591;48.102;11.772;2023-04-03T06:38:49;5.13;;;3.45;;
46116;SDS011;32591;48.102;11.772;2023-04-03T06:41:17;5.65;;;3.28;;
46116;SDS011;32591;48.102;11.772;2023-04-03T06:43:45;4.65;;;3.28;;
46116;SDS011;32591;48.102;11.772;2023-04-03T06:46:13;5.30;;;3.45;;
46116;SDS011;32591;48.102;11.772;2023-04-03T06:48:41;4.65;;;2.75;;
46116;SDS011;32591;48.102;11.772;2023-04-03T06:51:13;5.88;;;3.20;;
46116;SDS011;32591;48.102;11.772;2023-04-03T06:53:45;4.28;;;3.10;;
46116;SDS011;32591;48.102;11.772;2023-04-03T06:56:13;5.35;;;3.17;;
46116;SDS011;32591;48.102;11.772;2023-04-03T06:58:40;4.53;;;3.28;;
46116;SDS011;32591;48.102;11.772;2023-04-03T07:01:09;4.40;;;3.33;;
46116;SDS011;32591;48.102;11.772;2023-04-03T07:03:37;5.85;;;3.53;;
46116;SDS011;32591;48.102;11.772;2023-04-03T07:06:05;6.50;;;3.40;;
46116;SDS011;32591;48.102;11.772;2023-04-03T07:08:33;5.82;;;3.45;;
46116;SDS011;32591;48.102;11.772;2023-04-03T07:11:00;6.78;;;3.92;;
46116;SDS011;32591;48.102;11.772;2023-04-03T07:15:54;4.93;;;3.00;;
46116;SDS011;32591;48.102;11.772;2023-04-03T07:18:22;5.38;;;3.78;;
46116;SDS011;32591;48.102;11.772;2023-04-03T07:20:50;4.13;;;2.92;;
46116;SDS011;32591;48.102;11.772;2023-04-03T07:23:17;6.68;;;3.67;;
46116;SDS011;32591;48.102;11.772;2023-04-03T07:25:45;7.90;;;3.45;;
46116;SDS011;32591;48.102;11.772;2023-04-03T07:28:14;4.65;;;3.05;;
46116;SDS011;32591;48.102;11.772;2023-04-03T07:30:43;6.32;;;3.72;;
46116;SDS011;32591;48.102;11.772;2023-04-03T07:33:11;7.18;;;3.67;;
46116;SDS011;32591;48.102;11.772;2023-04-03T07:35:40;6.20;;;3.63;;
46116;SDS011;32591;48.102;11.772;2023-04-03T07:38:08;6.53;;;3.95;;
46116;SDS011;32591;48.102;11.772;2023-04-03T07:40:36;7.85;;;3.53;;
46116;SDS011;32591;48.102;11.772;2023-04-03T07:43:05;6.38;;;3.53;;
46116;SDS011;32591;48.102;11.772;2023-04-03T07:45:34;11.70;;;3.55;;
46116;SDS011;32591;48.102;11.772;2023-04-03T07:48:01;6.72;;;3.65;;
46116;SDS011;32591;48.102;11.772;2023-04-03T07:50:29;6.60;;;3.83;;
46116;SDS011;32591;48.102;11.772;2023-04-03T07:52:58;5.93;;;3.63;;
46116;SDS011;32591;48.102;11.772;2023-04-03T07:55:25;6.18;;;3.80;;
46116;SDS011;32591;48.102;11.772;2023-04-03T08:00:20;7.72;;;4.20;;
46116;SDS011;32591;48.102;11.772;2023-04-03T08:02:48;4.82;;;3.28;;
46116;SDS011;32591;48.102;11.772;2023-04-03T08:05:16;6.38;;;3.97;;
46116;SDS011;32591;48.102;11.772;2023-04-03T08:07:43;6.20;;;3.78;;
46116;SDS011;32591;48.102;11.772;2023-04-03T08:10:12;5.10;;;3.58;;
46116;SDS011;32591;48.102;11.772;2023-04-03T08:12:40;6.82;;;3.80;;
46116;SDS011;32591;48.102;11.772;2023-04-03T08:15:08;6.70;;;4.32;;
46116;SDS011;32591;48.102;11.772;2023-04-03T08:17:35;6.50;;;3.80;;
46116;SDS011;32591;48.102;11.772;2023-04-03T08:20:03;7.43;;;4.32;;
46116;SDS011;32591;48.102;11.772;2023-04-03T08:22:33;8.75;;;3.88;;
46116;SDS011;32591;48.102;11.772;2023-04-03T08:25:00;4.85;;;3.78;;
46116;SDS011;32591;48.102;11.772;2023-04-03T08:29:56;5.50;;;3.58;;
46116;SDS011;32591;48.102;11.772;2023-04-03T08:32:23;6.93;;;3.97;;
46116;SDS011;32591;48.102;11.772;2023-04-03T08:34:50;6.40;;;4.15;;
46116;SDS011;32591;48.102;11.772;2023-04-03T08:39:44;5.45;;;3.65;;
46116;SDS011;32591;48.102;11.772;2023-04-03T08:42:14;4.88;;;3.78;;
46116;SDS011;32591;48.102;11.772;2023-04-03T08:44:49;7.93;;;4.03;;
46116;SDS011;32591;48.102;11.772;2023-04-03T08:47:23;7.78;;;3.78;;
46116;SDS011;32591;48.102;11.772;2023-04-03T08:49:57;5.28;;;3.80;;
46116;SDS011;32591;48.102;11.772;2023-04-03T08:52:35;6.13;;;3.92;;
46116;SDS011;32591;48.102;11.772;2023-04-03T08:55:07;6.50;;;3.80;;
46116;SDS011;32591;48.102;11.772;2023-04-03T08:57:49;8.52;;;3.78;;
46116;SDS011;32591;48.102;11.772;2023-04-03T09:00:26;5.45;;;3.78;;
46116;SDS011;32591;48.102;11.772;2023-04-03T09:02:56;7.18;;;3.42;;
46116;SDS011;32591;48.102;11.772;2023-04-03T09:05:27;7.32;;;4.00;;
46116;SDS011;32591;48.102;11.772;2023-04-03T09:08:06;4.53;;;3.88;;
46116;SDS011;32591;48.102;11.772;2023-04-03T09:10:40;5.43;;;3.97;;
46116;SDS011;32591;48.102;11.772;2023-04-03T09:13:10;6.57;;;3.72;;
46116;SDS011;32591;48.102;11.772;2023-04-03T09:15:48;7.38;;;4.20;;
46116;SDS011;32591;48.102;11.772;2023-04-03T09:18:18;4.90;;;3.65;;
46116;SDS011;32591;48.102;11.772;2023-04-03T09:20:49;6.38;;;4.53;;
46116;SDS011;32591;48.102;11.772;2023-04-03T09:23:28;6.53;;;4.18;;
46116;SDS011;32591;48.102;11.772;2023-04-03T09:26:01;10.32;;;3.85;;
46116;SDS011;32591;48.102;11.772;2023-04-03T09:28:34;5.78;;;3.65;;
46116;SDS011;32591;48.102;11.772;2023-04-03T09:31:10;6.50;;;3.72;;
46116;SDS011;32591;48.102;11.772;2023-04-03T09:33:47;5.13;;;3.72;;
46116;SDS011;32591;48.102;11.772;2023-04-03T09:39:10;5.90;;;3.95;;
46116;SDS011;32591;48.102;11.772;2023-04-03T09:41:39;5.30;;;3.95;;
46116;SDS011;32591;48.102;11.772;2023-04-03T09:44:18;5.88;;;4.30;;
46116;SDS011;32591;48.102;11.772;2023-04-03T09:46:50;6.18;;;3.92;;
46116;SDS011;32591;48.102;11.772;2023-04-03T09:49:17;8.88;;;4.57;;
46116;SDS011;32591;48.102;11.772;2023-04-03T09:51:45;5.22;;;4.22;;
46116;SDS011;32591;48.102;11.772;2023-04-03T09:57:06;5.32;;;3.83;;
46116;SDS011;32591;48.102;11.772;2023-04-03T09:59:37;6.43;;;3.80;;
46116;SDS011;32591;48.102;11.772;2023-04-03T10:02:22;6.50;;;5.50;;
46116;SDS011;32591;48.102;11.772;2023-04-03T10:04:58;5.40;;;3.75;;
46116;SDS011;32591;48.102;11.772;2023-04-03T10:07:27;6.55;;;3.85;;
46116;SDS011;32591;48.102;11.772;2023-04-03T10:09:57;6.55;;;3.88;;
46116;SDS011;32591;48.102;11.772;2023-04-03T10:12:26;5.30;;;3.55;;
46116;SDS011;32591;48.102;11.772;2023-04-03T10:14:54;7.28;;;3.88;;
46116;SDS011;32591;48.102;11.772;2023-04-03T10:17:25;6.50;;;4.82;;
46116;SDS011;32591;48.102;11.772;2023-04-03T10:20:09;5.13;;;4.00;;
46116;SDS011;32591;48.102;11.772;2023-04-03T10:23:00;6.65;;;4.03;;
46116;SDS011;32591;48.102;11.772;2023-04-03T10:25:48;6.70;;;4.50;;
46116;SDS011;32591;48.102;11.772;2023-04-03T10:28:27;5.22;;;3.75;;
46116;SDS011;32591;48.102;11.772;2023-04-03T10:31:03;5.68;;;3.63;;
46116;SDS011;32591;48.102;11.772;2023-04-03T10:33:48;5.80;;;4.00;;
46116;SDS011;32591;48.102;11.772;2023-04-03T10:36:25;7.47;;;3.58;;
46116;SDS011;32591;48.102;11.772;2023-04-03T10:39:04;6.18;;;4.22;;
46116;SDS011;32591;48.102;11.772;2023-04-03T10:41:47;9.45;;;4.80;;
46116;SDS011;32591;48.102;11.772;2023-04-03T10:44:28;6.47;;;4.03;;
46116;SDS011;32591;48.102;11.772;2023-04-03T10:49:38;6.13;;;3.90;;
46116;SDS011;32591;48.102;11.772;2023-04-03T10:52:17;6.13;;;3.80;;
46116;SDS011;32591;48.102;11.772;2023-04-03T10:54:53;6.13;;;4.25;;
46116;SDS011;32591;48.102;11.772;2023-04-03T10:57:28;8.95;;;4.75;;
46116;SDS011;32591;48.102;11.772;2023-04-03T10:59:56;5.93;;;3.38;;
46116;SDS011;32591;48.102;11.772;2023-04-03T11:02:30;7.35;;;3.78;;
46116;SDS011;32591;48.102;11.772;2023-04-03T11:05:04;10.23;;;3.78;;
46116;SDS011;32591;48.102;11.772;2023-04-03T11:07:40;7.22;;;3.75;;
46116;SDS011;32591;48.102;11.772;2023-04-03T11:10:13;6.43;;;3.22;;
46116;SDS011;32591;48.102;11.772;2023-04-03T11:12:46;5.57;;;3.53;;
46116;SDS011;32591;48.102;11.772;2023-04-03T11:15:29;7.03;;;4.25;;
46116;SDS011;32591;48.102;11.772;2023-04-03T11:18:00;6.95;;;3.97;;
46116;SDS011;32591;48.102;11.772;2023-04-03T11:20:34;6.95;;;3.95;;
46116;SDS011;32591;48.102;11.772;2023-04-03T11:23:04;5.65;;;3.42;;
46116;SDS011;32591;48.102;11.772;2023-04-03T11:25:38;4.95;;;2.90;;
46116;SDS011;32591;48.102;11.772;2023-04-03T11:28:11;4.57;;;3.08;;
46116;SDS011;32591;48.102;11.772;2023-04-03T11:30:42;4.72;;;2.40;;
46116;SDS011;32591;48.102;11.772;2023-04-03T11:33:20;6.07;;;2.72;;
46116;SDS011;32591;48.102;11.772;2023-04-03T11:36:00;4.50;;;2.40;;
46116;SDS011;32591;48.102;11.772;2023-04-03T11:38:35;4.03;;;2.67;;
46116;SDS011;32591;48.102;11.772;2023-04-03T11:41:08;4.80;;;2.67;;
46116;SDS011;32591;48.102;11.772;2023-04-03T11:43:40;5.57;;;3.15;;
46116;SDS011;32591;48.102;11.772;2023-04-03T11:46:09;5.82;;;3.00;;
46116;SDS011;32591;48.102;11.772;2023-04-03T11:48:44;3.83;;;2.70;;
46116;SDS011;32591;48.102;11.772;2023-04-03T11:51:41;3.95;;;2.72;;
46116;SDS011;32591;48.102;11.772;2023-04-03T12:00:52;4.82;;;2.28;;
46116;SDS011;32591;48.102;11.772;2023-04-03T12:12:56;4.78;;;2.70;;
46116;SDS011;32591;48.102;11.772;2023-04-03T12:21:11;5.63;;;2.38;;
46116;SDS011;32591;48.102;11.772;2023-04-03T12:26:30;4.88;;;2.13;;
46116;SDS011;32591;48.102;11.772;2023-04-03T12:29:04;5.00;;;1.95;;
46116;SDS011;32591;48.102;11.772;2023-04-03T12:31:46;5.78;;;2.25;;
46116;SDS011;32591;48.102;11.772;2023-04-03T12:34:28;6.50;;;2.58;;
46116;SDS011;32591;48.102;11.772;2023-04-03T12:37:16;4.60;;;2.30;;
46116;SDS011;32591;48.102;11.772;2023-04-03T12:40:01;3.20;;;2.15;;
46116;SDS011;32591;48.102;11.772;2023-04-03T12:45:39;4.82;;;2.35;;
46116;SDS011;32591;48.102;11.772;2023-04-03T12:48:12;5.45;;;1.95;;
46116;SDS011;32591;48.102;11.772;2023-04-03T12:50:43;3.92;;;2.30;;
46116;SDS011;32591;48.102;11.772;2023-04-03T12:53:13;3.28;;;2.00;;
46116;SDS011;32591;48.102;11.772;2023-04-03T12:55:45;6.55;;;2.05;;
46116;SDS011;32591;48.102;11.772;2023-04-03T12:58:13;2.47;;;1.70;;
46116;SDS011;32591;48.102;11.772;2023-04-03T13:00:49;3.15;;;1.80;;
46116;SDS011;32591;48.102;11.772;2023-04-03T13:03:27;3.03;;;1.50;;
46116;SDS011;32591;48.102;11.772;2023-04-03T13:05:55;2.63;;;1.70;;
46116;SDS011;32591;48.102;11.772;2023-04-03T13:08:26;4.13;;;2.05;;
46116;SDS011;32591;48.102;11.772;2023-04-03T13:10:56;1.88;;;1.40;;
46116;SDS011;32591;48.102;11.772;2023-04-03T13:13:27;5.63;;;2.10;;
46116;SDS011;32591;48.102;11.772;2023-04-03T13:15:55;3.78;;;1.80;;
46116;SDS011;32591;48.102;11.772;2023-04-03T13:18:23;4.00;;;1.80;;
46116;SDS011;32591;48.102;11.772;2023-04-03T13:20:57;3.75;;;2.17;;
46116;SDS011;32591;48.102;11.772;2023-04-03T13:23:30;5.50;;;2.17;;
46116;SDS011;32591;48.102;11.772;2023-04-03T13:25:59;2.83;;;1.60;;
46116;SDS011;32591;48.102;11.772;2023-04-03T13:28:28;4.95;;;2.20;;
46116;SDS011;32591;48.102;11.772;2023-04-03T13:31:05;4.07;;;1.95;;
46116;SDS011;32591;48.102;11.772;2023-04-03T13:33:42;3.70;;;2.05;;
46116;SDS011;32591;48.102;11.772;2023-04-03T13:36:20;3.28;;;1.70;;
46116;SDS011;32591;48.102;11.772;2023-04-03T13:38:57;3.53;;;1.30;;
46116;SDS011;32591;48.102;11.772;2023-04-03T13:41:30;2.40;;;1.65;;
46116;SDS011;32591;48.102;11.772;2023-04-03T13:46:54;2.17;;;1.00;;
46116;SDS011;32591;48.102;11.772;2023-04-03T13:49:27;3.92;;;1.77;;
46116;SDS011;32591;48.102;11.772;2023-04-03T13:51:58;2.83;;;1.45;;
46116;SDS011;32591;48.102;11.772;2023-04-03T13:54:29;3.13;;;1.63;;
46116;SDS011;32591;48.102;11.772;2023-04-03T13:57:00;2.53;;;1.58;;
46116;SDS011;32591;48.102;11.772;2023-04-03T13:59:30;3.72;;;1.70;;
46116;SDS011;32591;48.102;11.772;2023-04-03T14:02:09;5.15;;;2.00;;
46116;SDS011;32591;48.102;11.772;2023-04-03T14:04:47;2.17;;;1.30;;
46116;SDS011;32591;48.102;11.772;2023-04-03T14:07:21;4.57;;;1.63;;
46116;SDS011;32591;48.102;11.772;2023-04-03T14:09:49;1.65;;;1.15;;
46116;SDS011;32591;48.102;11.772;2023-04-03T14:12:24;4.80;;;1.40;;
46116;SDS011;32591;48.102;11.772;2023-04-03T14:14:54;3.42;;;2.13;;
46116;SDS011;32591;48.102;11.772;2023-04-03T14:17:22;2.45;;;1.40;;
46116;SDS011;32591;48.102;11.772;2023-04-03T14:19:51;2.00;;;1.25;;
46116;SDS011;32591;48.102;11.772;2023-04-03T14:22:21;1.98;;;1.42;;
46116;SDS011;32591;48.102;11.772;2023-04-03T14:24:50;2.80;;;1.67;;
46116;SDS011;32591;48.102;11.772;2023-04-03T14:27:20;2.45;;;1.40;;
46116;SDS011;32591;48.102;11.772;2023-04-03T14:29:49;3.55;;;1.58;;
46116;SDS011;32591;48.102;11.772;2023-04-03T14:32:19;2.00;;;1.08;;
46116;SDS011;32591;48.102;11.772;2023-04-03T14:34:48;1.98;;;1.30;;
46116;SDS011;32591;48.102;11.772;2023-04-03T14:37:18;3.33;;;1.65;;
46116;SDS011;32591;48.102;11.772;2023-04-03T14:39:49;3.40;;;1.65;;
46116;SDS011;32591;48.102;11.772;2023-04-03T14:42:20;4.53;;;1.83;;
46116;SDS011;32591;48.102;11.772;2023-04-03T14:44:50;1.85;;;1.25;;
46116;SDS011;32591;48.102;11.772;2023-04-03T14:47:19;3.15;;;1.48;;
46116;SDS011;32591;48.102;11.772;2023-04-03T14:49:49;3.90;;;1.40;;
46116;SDS011;32591;48.102;11.772;2023-04-03T14:52:18;2.10;;;1.58;;
46116;SDS011;32591;48.102;11.772;2023-04-03T14:54:47;4.53;;;1.67;;
46116;SDS011;32591;48.102;11.772;2023-04-03T14:57:16;2.38;;;1.50;;
46116;SDS011;32591;48.102;11.772;2023-04-03T14:59:45;2.58;;;1.23;;
46116;SDS011;32591;48.102;11.772;2023-04-03T15:02:25;1.98;;;1.30;;
46116;SDS011;32591;48.102;11.772;2023-04-03T15:04:55;3.05;;;1.92;;
46116;SDS011;32591;48.102;11.772;2023-04-03T15:07:24;2.60;;;1.20;;
46116;SDS011;32591;48.102;11.772;2023-04-03T15:09:53;4.28;;;1.60;;
46116;SDS011;32591;48.102;11.772;2023-04-03T15:12:21;2.65;;;1.60;;
46116;SDS011;32591;48.102;11.772;2023-04-03T15:14:50;3.63;;;1.80;;
46116;SDS011;32591;48.102;11.772;2023-04-03T15:17:17;2.88;;;1.35;;
46116;SDS011;32591;48.102;11.772;2023-04-03T15:19:48;2.25;;;1.70;;
46116;SDS011;32591;48.102;11.772;2023-04-03T15:22:16;2.45;;;1.40;;
46116;SDS011;32591;48.102;11.772;2023-04-03T15:24:45;3.95;;;1.50;;
46116;SDS011;32591;48.102;11.772;2023-04-03T15:27:13;3.08;;;1.50;;
46116;SDS011;32591;48.102;11.772;2023-04-03T15:29:41;4.20;;;1.60;;
46116;SDS011;32591;48.102;11.772;2023-04-03T15:32:11;3.70;;;1.58;;
46116;SDS011;32591;48.102;11.772;2023-04-03T15:34:38;3.80;;;1.60;;
46116;SDS011;32591;48.102;11.772;2023-04-03T15:37:06;5.47;;;2.42;;
46116;SDS011;32591;48.102;11.772;2023-04-03T15:39:33;3.50;;;1.52;;
46116;SDS011;32591;48.102;11.772;2023-04-03T15:44:31;3.67;;;1.42;;
46116;SDS011;32591;48.102;11.772;2023-04-03T15:46:59;4.22;;;2.17;;
46116;SDS011;32591;48.102;11.772;2023-04-03T15:49:29;3.50;;;2.03;;
46116;SDS011;32591;48.102;11.772;2023-04-03T15:51:57;2.30;;;1.42;;
46116;SDS011;32591;48.102;11.772;2023-04-03T15:54:24;2.95;;;1.25;;
46116;SDS011;32591;48.102;11.772;2023-04-03T15:56:52;2.65;;;1.40;;
46116;SDS011;32591;48.102;11.772;2023-04-03T15:59:19;1.77;;;1.38;;
46116;SDS011;32591;48.102;11.772;2023-04-03T16:01:46;3.60;;;1.60;;
46116;SDS011;32591;48.102;11.772;2023-04-03T16:04:14;4.38;;;1.52;;
46116;SDS011;32591;48.102;11.772;2023-04-03T16:06:43;4.05;;;1.48;;
46116;SDS011;32591;48.102;11.772;2023-04-03T16:09:10;2.40;;;1.27;;
46116;SDS011;32591;48.102;11.772;2023-04-03T16:11:37;3.72;;;1.88;;
46116;SDS011;32591;48.102;11.772;2023-04-03T16:14:05;2.63;;;1.33;;
46116;SDS011;32591;48.102;11.772;2023-04-03T16:16:32;4.82;;;2.00;;
46116;SDS011;32591;48.102;11.772;2023-04-03T16:19:00;3.33;;;1.92;;
46116;SDS011;32591;48.102;11.772;2023-04-03T16:21:27;1.88;;;1.15;;
46116;SDS011;32591;48.102;11.772;2023-04-03T16:23:57;3.38;;;1.73;;
46116;SDS011;32591;48.102;11.772;2023-04-03T16:26:24;4.43;;;1.60;;
46116;SDS011;32591;48.102;11.772;2023-04-03T16:28:52;3.35;;;1.83;;
46116;SDS011;32591;48.102;11.772;2023-04-03T16:31:20;1.70;;;1.27;;
46116;SDS011;32591;48.102;11.772;2023-04-03T16:33:48;3.63;;;1.40;;
46116;SDS011;32591;48.102;11.772;2023-04-03T16:36:15;3.97;;;1.55;;
46116;SDS011;32591;48.102;11.772;2023-04-03T16:38:42;2.58;;;1.40;;
46116;SDS011;32591;48.102;11.772;2023-04-03T16:41:11;3.28;;;1.38;;
46116;SDS011;32591;48.102;11.772;2023-04-03T16:43:38;3.33;;;1.70;;
46116;SDS011;32591;48.102;11.772;2023-04-03T16:46:05;3.08;;;1.30;;
46116;SDS011;32591;48.102;11.772;2023-04-03T16:48:32;1.75;;;1.42;;